createdAt,value
2022-11-16T15:31:23.452Z,4.85
2022-11-16T15:34:01.142Z,4.84
2022-11-16T15:36:44.467Z,4.80
2022-11-16T15:39:23.155Z,4.90
2022-11-16T15:42:03.771Z,4.83
2022-11-16T15:44:42.223Z,4.88
2022-11-16T15:47:22.643Z,4.91
2022-11-16T15:50:00.372Z,4.89
2022-11-16T15:52:50.683Z,4.99
2022-11-16T15:55:33.312Z,4.93
2022-11-16T15:58:27.615Z,4.95
2022-11-16T16:01:05.552Z,4.90
2022-11-16T16:26:35.214Z,5.06
2022-11-16T16:29:14.163Z,4.82
2022-11-16T17:16:30.890Z,5.04
2022-11-16T17:19:11.648Z,5.08
2022-11-16T17:21:53.593Z,4.98
2022-11-16T17:24:39.561Z,5.01
2022-11-16T17:27:22.287Z,5.01
2022-11-16T17:30:04.126Z,5.02
2022-11-16T17:32:49.112Z,4.95
2022-11-16T17:35:31.503Z,5.01
2022-11-16T17:38:14.768Z,4.93
2022-11-16T17:40:54.474Z,4.95
2022-11-16T17:43:32.756Z,4.97
2022-11-16T17:46:15.540Z,4.89
2022-11-16T17:49:00.331Z,4.78
2022-11-16T17:51:40.666Z,4.77
2022-11-16T17:54:22.522Z,4.65
2022-11-16T18:08:54.224Z,4.69
2022-11-16T18:11:34.186Z,4.63
2022-11-16T18:14:13.622Z,4.63
2022-11-16T18:16:54.802Z,4.68
2022-11-16T18:19:34.305Z,4.62
2022-11-16T18:22:14.644Z,4.53
2022-11-16T18:24:56.546Z,4.60
2022-11-16T18:27:36.629Z,4.61
2022-11-16T18:30:18.757Z,4.63
2022-11-16T18:33:04.501Z,4.62
2022-11-16T18:58:53.364Z,4.38
2022-11-16T19:01:35.624Z,4.36
2022-11-16T19:04:14.433Z,4.38
2022-11-16T19:06:52.987Z,4.42
2022-11-16T19:09:30.872Z,4.42
2022-11-16T19:12:10.827Z,4.42
2022-11-16T19:14:52.385Z,4.48
2022-11-16T19:17:48.020Z,4.45
2022-11-16T19:20:33.222Z,4.46
2022-11-16T19:23:12.053Z,4.45
2022-11-16T19:25:50.403Z,4.42
2022-11-16T19:28:29.737Z,4.41
2022-11-16T19:31:16.749Z,4.38
2022-11-16T19:45:06.233Z,4.34
2022-11-16T19:51:44.096Z,4.34
2022-11-16T19:54:23.258Z,4.39
2022-11-16T19:57:02.451Z,4.33
2022-11-16T19:59:41.525Z,4.30
2022-11-16T20:02:19.706Z,4.27
2022-11-16T20:16:45.936Z,4.20
2022-11-16T20:19:25.934Z,4.21
2022-11-16T20:20:28.685Z,4.28
2022-11-16T20:22:04.655Z,4.14
2022-11-16T20:24:43.952Z,4.11
2022-11-16T20:27:24.995Z,4.14
